Time;durP1;ratioP1;P1;durP2;ratioP2;P2;SDS_P1;SDS_P2;PMS_P1;PMS_P2;Temp;Humidity;BMP_temperature;BMP_pressure;BME280_temperature;BME280_humidity;BME280_pressure;Samples;Min_cycle;Max_cycle;Signal;HPM_P1;HPM_P2
2022/05/21 04:02:37;;;;;;;8.20;7.40;;;15.00;99.90;;;;;;4976642;28;20455;-64
2022/05/21 04:05:06;;;;;;;8.30;7.50;;;15.00;99.90;;;;;;4977526;28;20938;-64
2022/05/21 04:07:33;;;;;;;9.73;8.53;;;14.90;99.90;;;;;;4977552;28;20474;-64
2022/05/21 04:10:00;;;;;;;9.23;8.53;;;14.90;99.90;;;;;;4977422;28;20816;-64
2022/05/21 04:12:27;;;;;;;10.43;9.63;;;14.90;99.90;;;;;;4977626;28;20478;-64
2022/05/21 04:14:54;;;;;;;11.97;10.47;;;14.90;99.90;;;;;;4977808;28;20466;-64
2022/05/21 04:17:21;;;;;;;12.20;11.10;;;14.90;99.90;;;;;;4977507;28;20458;-64
2022/05/21 04:19:49;;;;;;;11.67;10.70;;;14.80;99.90;;;;;;4977583;28;20451;-64
2022/05/21 04:22:15;;;;;;;11.90;10.70;;;14.80;99.90;;;;;;4977592;28;20474;-64
2022/05/21 04:24:42;;;;;;;11.13;10.10;;;14.80;99.90;;;;;;4977513;28;20454;-64
2022/05/21 04:27:09;;;;;;;11.33;10.20;;;14.80;99.90;;;;;;4977413;28;20466;-64
2022/05/21 04:29:36;;;;;;;12.60;11.37;;;14.90;99.90;;;;;;4977465;28;20459;-65
2022/05/21 04:32:03;;;;;;;11.93;11.00;;;14.80;99.90;;;;;;4977115;28;20993;-65
2022/05/21 04:34:30;;;;;;;15.30;10.10;;;14.80;99.90;;;;;;4976995;28;20946;-64
2022/05/21 04:36:58;;;;;;;12.20;10.90;;;14.80;99.90;;;;;;4977322;28;20459;-64
2022/05/21 04:39:24;;;;;;;11.40;10.40;;;14.80;99.90;;;;;;4977252;28;20451;-64
2022/05/21 04:41:52;;;;;;;10.10;9.30;;;14.80;99.90;;;;;;4978449;28;20484;-64
2022/05/21 04:44:19;;;;;;;10.30;9.50;;;14.90;99.90;;;;;;4981700;28;20459;-64
2022/05/21 04:46:46;;;;;;;10.10;9.37;;;14.90;99.90;;;;;;4979800;28;20497;-64
2022/05/21 04:49:12;;;;;;;10.40;9.50;;;14.90;99.90;;;;;;4976717;28;21052;-65
2022/05/21 04:51:39;;;;;;;10.17;9.27;;;14.90;99.90;;;;;;4976996;28;20817;-64
2022/05/21 04:54:07;;;;;;;10.37;9.57;;;14.90;99.90;;;;;;4976765;28;20941;-64
2022/05/21 04:56:34;;;;;;;10.40;9.50;;;14.90;99.90;;;;;;4977378;28;20454;-64
2022/05/21 04:59:01;;;;;;;10.67;9.67;;;14.90;99.90;;;;;;4976583;28;20537;-64
2022/05/21 05:01:30;;;;;;;8.50;7.80;;;15.00;99.90;;;;;;4975998;28;20574;-64
2022/05/21 05:03:57;;;;;;;8.97;8.30;;;15.00;99.90;;;;;;4976810;28;20460;-64
2022/05/21 05:06:23;;;;;;;8.20;7.50;;;15.00;99.90;;;;;;4976721;28;20463;-65
2022/05/21 05:08:50;;;;;;;9.33;8.40;;;15.10;99.90;;;;;;4976679;28;20482;-64
2022/05/21 05:11:18;;;;;;;9.30;8.50;;;15.10;99.90;;;;;;4976566;28;20479;-64
2022/05/21 05:13:45;;;;;;;8.50;7.80;;;15.20;99.90;;;;;;4976639;28;20463;-65
2022/05/21 05:16:11;;;;;;;8.07;7.40;;;15.20;99.90;;;;;;4976630;28;20466;-65
2022/05/21 05:18:38;;;;;;;9.43;8.63;;;15.30;99.90;;;;;;4976590;28;20521;-64
2022/05/21 05:21:05;;;;;;;9.47;8.03;;;15.30;99.90;;;;;;4976593;28;20485;-64
2022/05/21 05:23:32;;;;;;;8.50;7.90;;;15.40;99.90;;;;;;4976233;28;20902;-65
2022/05/21 05:25:59;;;;;;;7.90;7.27;;;15.50;99.90;;;;;;4976490;28;20458;-64
2022/05/21 05:28:28;;;;;;;8.77;7.97;;;15.70;99.90;;;;;;4976296;28;20569;-65
2022/05/21 05:30:55;;;;;;;7.70;7.00;;;16.00;99.90;;;;;;4976243;28;20485;-65
2022/05/21 05:33:23;;;;;;;8.57;7.97;;;16.10;99.90;;;;;;4976342;28;20458;-64
2022/05/21 05:35:52;;;;;;;9.10;8.20;;;16.20;99.90;;;;;;4976299;28;20817;-64
2022/05/21 05:38:19;;;;;;;8.83;7.67;;;16.30;99.90;;;;;;4976136;28;20450;-64
2022/05/21 05:40:49;;;;;;;8.53;7.87;;;16.40;99.90;;;;;;4975868;28;21036;-64
2022/05/21 05:43:18;;;;;;;7.80;7.20;;;16.50;99.90;;;;;;4975876;28;20937;-64
2022/05/21 05:45:46;;;;;;;7.40;6.80;;;16.40;99.90;;;;;;4975827;28;20478;-65
2022/05/21 05:48:13;;;;;;;7.20;6.70;;;16.50;99.90;;;;;;4976040;28;20475;-64
2022/05/21 05:50:39;;;;;;;7.27;6.77;;;16.50;99.90;;;;;;4975912;28;20478;-64
2022/05/21 05:53:08;;;;;;;7.40;6.70;;;16.60;99.90;;;;;;4976068;28;20525;-64
2022/05/21 05:55:36;;;;;;;7.63;6.97;;;16.70;99.90;;;;;;4975859;28;20450;-64
2022/05/21 05:59:48;;;;;;;6.87;6.43;;;16.80;99.90;;;;;;4975832;28;20529;-64
2022/05/21 06:00:50;;;;;;;7.53;6.83;;;16.70;99.90;;;;;;4975319;28;20851;-64
2022/05/21 06:03:17;;;;;;;6.80;6.40;;;16.80;99.90;;;;;;4975860;28;20462;-65
2022/05/21 06:05:43;;;;;;;7.77;6.97;;;16.80;99.90;;;;;;4975667;28;20461;-65
2022/05/21 06:08:10;;;;;;;7.90;6.83;;;16.90;99.90;;;;;;4975623;28;20482;-64
2022/05/21 06:10:40;;;;;;;8.23;7.43;;;16.90;99.90;;;;;;4975354;28;20478;-64
2022/05/21 06:13:08;;;;;;;7.23;6.50;;;17.00;99.90;;;;;;4975546;28;20965;-64
2022/05/21 06:15:35;;;;;;;5.73;5.33;;;17.10;99.90;;;;;;4975333;28;20962;-64
2022/05/21 06:18:08;;;;;;;6.07;5.40;;;17.20;99.90;;;;;;4975598;28;20458;-64
2022/05/21 06:20:36;;;;;;;5.93;5.43;;;17.30;99.90;;;;;;4975410;28;20488;-64
2022/05/21 06:23:03;;;;;;;5.57;5.07;;;17.50;99.90;;;;;;4977363;28;20459;-64
2022/05/21 06:25:33;;;;;;;5.47;4.97;;;17.70;99.90;;;;;;4980111;28;20462;-64
2022/05/21 06:28:00;;;;;;;5.57;5.07;;;18.00;99.90;;;;;;4979078;28;20474;-64
2022/05/21 06:30:29;;;;;;;4.30;4.00;;;18.20;99.90;;;;;;4976504;28;20844;-64
2022/05/21 06:32:56;;;;;;;4.60;4.20;;;18.40;99.90;;;;;;4975008;28;20831;-65
2022/05/21 06:35:24;;;;;;;3.77;3.40;;;18.60;99.90;;;;;;4975252;28;20465;-64
2022/05/21 06:37:51;;;;;;;4.17;3.87;;;18.80;99.90;;;;;;4975321;28;20458;-65
2022/05/21 06:40:19;;;;;;;3.93;3.63;;;19.00;99.90;;;;;;4975189;28;20517;-62
2022/05/21 06:42:47;;;;;;;3.57;3.23;;;19.40;99.90;;;;;;4975227;28;20459;-63
2022/05/21 06:45:14;;;;;;;3.30;3.00;;;19.70;99.90;;;;;;4975047;28;20489;-63
2022/05/21 06:47:40;;;;;;;3.00;2.80;;;20.30;99.90;;;;;;4974755;28;20450;-64
2022/05/21 06:50:08;;;;;;;3.80;2.50;;;20.90;99.90;;;;;;4974736;28;20458;-63
2022/05/21 06:52:39;;;;;;;3.40;2.73;;;21.50;99.90;;;;;;4974568;28;20837;-63
2022/05/21 06:55:07;;;;;;;3.00;2.40;;;22.00;99.90;;;;;;4975050;28;20439;-63
2022/05/21 06:57:33;;;;;;;2.70;2.10;;;22.40;99.90;;;;;;4974970;28;20454;-63
2022/05/21 07:00:00;;;;;;;3.53;2.20;;;22.80;99.90;;;;;;4974832;28;20446;-63
2022/05/21 07:02:27;;;;;;;1.87;1.77;;;23.20;99.90;;;;;;4974424;28;20486;-63
2022/05/21 07:07:44;;;;;;;2.70;2.50;;;24.10;98.50;;;;;;4958064;28;20473;-63
2022/05/21 07:10:16;;;;;;;2.70;2.30;;;24.50;97.00;;;;;;4974708;28;20467;-63
2022/05/21 07:12:43;;;;;;;2.03;1.93;;;24.90;96.70;;;;;;4974685;28;20454;-63
2022/05/21 07:15:11;;;;;;;3.17;2.00;;;25.10;94.40;;;;;;4974980;28;20455;-63
2022/05/21 07:17:38;;;;;;;2.50;2.30;;;25.20;93.00;;;;;;4974797;28;20462;-63
2022/05/21 07:20:09;;;;;;;2.60;2.40;;;25.10;92.60;;;;;;4974677;28;20484;-64
2022/05/21 07:22:36;;;;;;;2.40;2.20;;;24.90;93.00;;;;;;4974952;28;20533;-64
2022/05/21 07:25:04;;;;;;;2.03;1.93;;;24.90;93.10;;;;;;4978526;28;20458;-64
2022/05/21 07:27:31;;;;;;;2.50;1.57;;;25.00;91.30;;;;;;4978246;28;20942;-64
2022/05/21 07:29:58;;;;;;;2.20;1.70;;;25.10;93.10;;;;;;4978556;28;20482;-65
2022/05/21 07:32:27;;;;;;;1.40;1.30;;;25.20;90.80;;;;;;4978409;28;20478;-64
2022/05/21 07:34:58;;;;;;;2.40;1.70;;;25.60;90.40;;;;;;4978525;28;20462;-64
2022/05/21 07:37:24;;;;;;;5.13;2.00;;;25.90;87.90;;;;;;4978756;28;20438;-65
2022/05/21 07:39:51;;;;;;;1.40;1.30;;;26.20;83.70;;;;;;4978430;28;20450;-64
2022/05/21 07:42:20;;;;;;;1.60;1.50;;;26.40;83.40;;;;;;4978218;28;20479;-64
2022/05/21 07:44:47;;;;;;;1.70;1.30;;;26.60;78.20;;;;;;4978421;28;20459;-64
2022/05/21 07:47:13;;;;;;;1.20;1.10;;;26.80;72.80;;;;;;4978329;28;20463;-64
2022/05/21 07:49:40;;;;;;;2.37;1.20;;;26.70;73.90;;;;;;4978112;28;20486;-64
2022/05/21 07:52:08;;;;;;;1.03;1.03;;;26.70;74.30;;;;;;4978308;28;20481;-64
2022/05/21 07:54:35;;;;;;;1.10;1.03;;;27.00;73.60;;;;;;4978425;28;20474;-64
2022/05/21 07:57:02;;;;;;;0.93;0.90;;;27.40;73.90;;;;;;4978413;28;20459;-64
2022/05/21 07:59:30;;;;;;;1.20;1.10;;;27.70;69.50;;;;;;4978026;28;20965;-64
2022/05/21 08:01:57;;;;;;;1.07;1.07;;;28.00;69.00;;;;;;4977895;28;20486;-64
2022/05/21 08:04:24;;;;;;;1.40;1.30;;;28.20;69.50;;;;;;4978185;28;20459;-64
2022/05/21 08:06:51;;;;;;;1.53;1.27;;;27.90;68.40;;;;;;4978068;28;20454;-64
2022/05/21 08:09:17;;;;;;;1.60;1.10;;;28.10;68.70;;;;;;4977549;28;20474;-64
2022/05/21 08:11:44;;;;;;;1.73;1.30;;;28.40;67.70;;;;;;4977461;28;21056;-64
2022/05/21 08:14:11;;;;;;;1.40;1.30;;;28.20;68.10;;;;;;4977904;28;20482;-64
2022/05/21 08:16:39;;;;;;;1.30;1.20;;;28.20;67.40;;;;;;4977360;28;20450;-64
2022/05/21 08:19:06;;;;;;;1.10;0.80;;;28.50;67.20;;;;;;4980551;28;20435;-64
2022/05/21 08:21:33;;;;;;;1.70;0.87;;;28.90;67.50;;;;;;4985997;28;20475;-65
2022/05/21 08:26:59;;;;;;;1.37;1.10;;;29.20;62.60;;;;;;4977846;28;20819;-64
2022/05/21 08:29:28;;;;;;;1.20;1.10;;;29.30;65.40;;;;;;4977585;28;20517;-64
2022/05/21 08:31:56;;;;;;;1.63;1.53;;;29.60;65.70;;;;;;4977502;28;20474;-64
2022/05/21 08:34:23;;;;;;;2.67;1.20;;;29.70;61.50;;;;;;4977292;28;20455;-64
2022/05/21 08:36:50;;;;;;;1.63;1.20;;;29.10;61.80;;;;;;4977233;28;20474;-64
2022/05/21 08:39:18;;;;;;;1.30;1.20;;;29.50;62.90;;;;;;4977233;28;20451;-64
2022/05/21 08:41:47;;;;;;;1.80;1.17;;;29.30;66.50;;;;;;4977139;28;20474;-64
2022/05/21 08:44:21;;;;;;;1.40;1.30;;;29.70;66.60;;;;;;4976946;28;20461;-64
2022/05/21 08:47:02;;;;;;;1.10;1.00;;;30.30;61.80;;;;;;4977220;28;20446;-65
2022/05/21 08:49:34;;;;;;;1.53;1.43;;;30.40;58.70;;;;;;4980782;28;20859;-65
2022/05/21 08:52:08;;;;;;;1.47;1.20;;;30.40;60.90;;;;;;4981318;28;20474;-65
2022/05/21 08:54:40;;;;;;;0.90;0.90;;;30.60;59.00;;;;;;4979745;28;20438;-65
2022/05/21 08:57:13;;;;;;;1.23;1.13;;;30.80;59.30;;;;;;4979344;28;20439;-65
2022/05/21 08:59:46;;;;;;;1.20;1.10;;;31.00;59.00;;;;;;4979637;28;20445;-65
2022/05/21 09:02:16;;;;;;;2.50;1.27;;;31.00;56.70;;;;;;4979417;28;21002;-65
2022/05/21 09:04:44;;;;;;;2.73;1.10;;;31.20;58.10;;;;;;4978062;28;20442;-65
2022/05/21 09:07:17;;;;;;;1.30;1.20;;;31.10;58.80;;;;;;4976904;28;20486;-65
2022/05/21 09:09:56;;;;;;;1.00;1.00;;;31.40;56.40;;;;;;4977563;28;20475;-65
2022/05/21 09:12:28;;;;;;;1.37;1.33;;;31.50;56.90;;;;;;4976838;28;20514;-65
2022/05/21 09:14:59;;;;;;;1.43;1.33;;;31.50;55.50;;;;;;4976783;28;20443;-64
2022/05/21 09:17:26;;;;;;;1.17;1.13;;;30.70;55.50;;;;;;4976605;28;20443;-64
2022/05/21 09:19:55;;;;;;;1.50;1.40;;;30.10;59.00;;;;;;4976555;28;20555;-64
2022/05/21 09:22:23;;;;;;;2.00;1.27;;;30.20;58.50;;;;;;4976178;28;20921;-65
2022/05/21 09:24:51;;;;;;;0.90;0.90;;;30.30;57.40;;;;;;4976472;28;20461;-65
2022/05/21 09:27:25;;;;;;;3.70;1.30;;;30.10;57.40;;;;;;4976257;28;20557;-64
2022/05/21 09:29:55;;;;;;;1.83;1.37;;;30.40;57.80;;;;;;4976256;28;20502;-65
2022/05/21 09:32:24;;;;;;;1.40;1.10;;;30.60;57.80;;;;;;4976286;28;20561;-64
2022/05/21 09:35:05;;;;;;;1.50;1.30;;;30.70;58.00;;;;;;4976531;28;20458;-65
2022/05/21 09:37:32;;;;;;;1.23;1.13;;;30.60;56.50;;;;;;4976386;28;20450;-64
2022/05/21 09:39:59;;;;;;;1.73;1.20;;;30.90;56.80;;;;;;4976259;28;20458;-65
2022/05/21 09:45:24;;;;;;;1.20;1.20;;;30.50;57.20;;;;;;4975763;28;20418;-65
2022/05/21 09:47:53;;;;;;;3.13;1.77;;;30.90;57.70;;;;;;4976230;28;20859;-65
2022/05/21 09:50:26;;;;;;;1.47;0.90;;;31.30;56.60;;;;;;4975900;28;20478;-65
2022/05/21 09:52:53;;;;;;;1.80;1.20;;;31.50;55.50;;;;;;4975738;28;20447;-64
2022/05/21 09:55:24;;;;;;;1.80;1.30;;;31.50;54.90;;;;;;4975854;28;20866;-65
2022/05/21 09:57:51;;;;;;;1.00;1.00;;;31.40;54.60;;;;;;4975999;28;20450;-65
2022/05/21 10:00:24;;;;;;;2.47;1.00;;;31.30;55.00;;;;;;4975541;28;20454;-64
2022/05/21 10:02:53;;;;;;;1.63;1.10;;;31.40;54.30;;;;;;4975526;28;20803;-64
2022/05/21 10:05:25;;;;;;;1.43;1.33;;;31.40;56.90;;;;;;4975786;28;20455;-64
2022/05/21 10:11:00;;;;;;;1.43;1.17;;;30.70;55.90;;;;;;4975375;28;20482;-65
2022/05/21 10:13:30;;;;;;;1.20;1.10;;;30.20;57.30;;;;;;4975619;28;20450;-64
2022/05/21 10:16:02;;;;;;;1.23;1.17;;;30.10;56.60;;;;;;4975526;28;20459;-64
2022/05/21 10:18:35;;;;;;;2.63;1.13;;;30.40;57.40;;;;;;4975485;28;20450;-64
2022/05/21 10:21:09;;;;;;;1.43;1.10;;;30.90;59.30;;;;;;4975445;28;20529;-64
2022/05/21 10:23:44;;;;;;;2.20;1.20;;;31.20;56.20;;;;;;4975493;28;20442;-64
2022/05/21 10:26:32;;;;;;;1.73;1.53;;;31.30;55.40;;;;;;4975373;28;20452;-64
2022/05/21 10:29:27;;;;;;;1.40;1.30;;;31.10;55.10;;;;;;4975295;28;20439;-65
2022/05/21 10:32:05;;;;;;;1.20;1.00;;;31.00;55.10;;;;;;4974987;28;20510;-64
2022/05/21 10:34:48;;;;;;;2.53;1.30;;;31.00;54.80;;;;;;4975213;28;20443;-64
2022/05/21 10:37:40;;;;;;;1.63;1.53;;;31.00;54.80;;;;;;4975350;28;20443;-64
2022/05/21 10:40:19;;;;;;;1.40;1.30;;;31.20;56.10;;;;;;4975705;28;20439;-64
2022/05/21 10:43:09;;;;;;;1.27;0.97;;;31.20;55.30;;;;;;4975145;28;20446;-64
2022/05/21 10:45:41;;;;;;;2.20;1.20;;;31.60;55.60;;;;;;4975092;28;20442;-65
2022/05/21 10:48:37;;;;;;;1.80;1.40;;;31.60;53.50;;;;;;4975127;28;20921;-64
2022/05/21 10:51:10;;;;;;;1.87;1.10;;;31.90;55.60;;;;;;4975379;28;20560;-64
2022/05/21 10:54:16;;;;;;;4.43;1.40;;;31.50;56.00;;;;;;4975376;28;20439;-65
2022/05/21 10:56:50;;;;;;;1.20;1.20;;;31.20;54.10;;;;;;4975113;28;20454;-65
2022/05/21 10:59:33;;;;;;;2.33;0.93;;;31.20;56.30;;;;;;4978446;28;20442;-66
2022/05/21 11:02:13;;;;;;;2.60;1.20;;;31.30;56.00;;;;;;4978733;28;20489;-65
2022/05/21 11:04:56;;;;;;;1.90;0.97;;;31.60;57.30;;;;;;4979319;28;20446;-65
2022/05/21 11:07:36;;;;;;;1.20;1.20;;;31.00;55.40;;;;;;4979135;28;20442;-64
2022/05/21 11:10:14;;;;;;;1.43;0.83;;;30.80;55.70;;;;;;4979088;28;20819;-65
2022/05/21 11:12:51;;;;;;;1.17;1.07;;;30.10;53.40;;;;;;4978964;28;20804;-65
2022/05/21 11:15:29;;;;;;;1.80;1.70;;;29.80;57.50;;;;;;4978608;28;20542;-64
2022/05/21 11:18:02;;;;;;;1.37;1.17;;;29.50;57.90;;;;;;4978904;28;20974;-64
2022/05/21 11:20:33;;;;;;;1.50;1.13;;;29.20;56.20;;;;;;4978870;28;20446;-64
2022/05/21 11:23:06;;;;;;;2.07;1.53;;;29.20;57.00;;;;;;4978921;28;20442;-65
2022/05/21 11:25:39;;;;;;;4.40;1.60;;;29.30;57.20;;;;;;4978825;28;20449;-64
2022/05/21 11:28:22;;;;;;;1.57;1.43;;;29.20;59.70;;;;;;4978885;28;20450;-64
2022/05/21 11:30:49;;;;;;;1.10;1.10;;;29.10;57.40;;;;;;4978384;28;20503;-63
2022/05/21 11:38:53;;;;;;;1.20;1.20;;;28.70;56.60;;;;;;4978558;28;20456;-64
2022/05/21 11:41:27;;;;;;;4.17;1.30;;;28.50;58.20;;;;;;4978611;28;20462;-64
2022/05/21 11:44:55;;;;;;;1.00;0.90;;;28.40;58.10;;;;;;4978656;28;20442;-64
2022/05/21 11:46:47;;;;;;;3.03;1.20;;;28.50;62.20;;;;;;4977726;28;20869;-64
2022/05/21 11:49:34;;;;;;;2.57;1.27;;;28.30;57.90;;;;;;4978134;28;20454;-64
2022/05/21 11:52:39;;;;;;;1.80;1.57;;;28.10;59.50;;;;;;4978180;28;20474;-65
2022/05/21 11:55:15;;;;;;;1.07;0.90;;;27.90;60.10;;;;;;4977837;28;20462;-64
2022/05/21 11:57:45;;;;;;;4.40;2.13;;;27.60;59.00;;;;;;4978228;28;20442;-64
2022/05/21 12:00:43;;;;;;;1.10;1.10;;;27.40;60.80;;;;;;4979110;28;20446;-64
2022/05/21 12:03:42;;;;;;;1.47;1.33;;;27.10;62.20;;;;;;4988659;28;20446;-64
2022/05/21 12:06:30;;;;;;;2.30;1.30;;;27.10;60.80;;;;;;4980938;28;20458;-64
2022/05/21 12:09:10;;;;;;;2.00;1.30;;;27.00;58.90;;;;;;4977207;28;20985;-64
2022/05/21 12:11:42;;;;;;;1.30;1.20;;;27.10;64.60;;;;;;4977757;28;20569;-64
2022/05/21 12:14:27;;;;;;;1.60;1.00;;;27.20;63.40;;;;;;4977789;28;20449;-64
2022/05/21 12:16:57;;;;;;;1.87;1.37;;;27.20;61.80;;;;;;4977573;28;20450;-64
2022/05/21 12:20:06;;;;;;;3.40;1.97;;;26.80;61.10;;;;;;4977731;28;20466;-64
2022/05/21 12:22:44;;;;;;;2.07;1.37;;;26.60;66.50;;;;;;4977547;28;20498;-64
2022/05/21 12:25:32;;;;;;;1.57;1.40;;;26.80;66.70;;;;;;4977552;28;20435;-64
2022/05/21 12:28:03;;;;;;;2.43;1.20;;;26.80;59.50;;;;;;4977435;28;20458;-64
2022/05/21 12:30:31;;;;;;;2.50;1.73;;;26.90;61.90;;;;;;4977448;28;20458;-64
2022/05/21 12:32:58;;;;;;;3.20;1.00;;;27.00;62.60;;;;;;4977316;28;20459;-64
2022/05/21 12:35:48;;;;;;;1.60;1.47;;;26.70;62.20;;;;;;4976831;28;20934;-64
2022/05/21 12:38:26;;;;;;;2.43;1.10;;;26.50;59.90;;;;;;4977241;28;20526;-64
2022/05/21 12:41:02;;;;;;;2.17;1.30;;;26.60;63.40;;;;;;4977167;28;20466;-64
2022/05/21 12:43:42;;;;;;;1.70;1.60;;;26.70;61.20;;;;;;4977719;28;20441;-64
2022/05/21 12:46:21;;;;;;;1.43;1.30;;;26.40;61.70;;;;;;4977140;28;20436;-64
2022/05/21 12:48:49;;;;;;;1.50;1.40;;;26.70;63.90;;;;;;4977110;28;20463;-64
2022/05/21 12:51:29;;;;;;;1.93;1.20;;;26.90;59.50;;;;;;4976833;28;20483;-64
2022/05/21 12:53:56;;;;;;;3.60;1.10;;;27.00;60.80;;;;;;4976940;28;20449;-64
2022/05/21 12:56:27;;;;;;;1.67;1.03;;;26.90;61.50;;;;;;4976610;28;20486;-64
2022/05/21 12:59:06;;;;;;;3.03;1.20;;;26.90;59.70;;;;;;4977051;28;20439;-64
2022/05/21 13:01:36;;;;;;;1.80;1.10;;;26.40;60.50;;;;;;4976737;28;20514;-64
2022/05/21 13:04:21;;;;;;;1.70;1.30;;;26.10;62.60;;;;;;4976704;28;21017;-64
2022/05/21 13:06:54;;;;;;;1.80;1.30;;;25.70;62.60;;;;;;4976766;28;20482;-64
2022/05/21 13:09:21;;;;;;;1.80;1.33;;;25.50;63.90;;;;;;4976812;28;20443;-64
2022/05/21 13:11:47;;;;;;;2.97;1.27;;;25.30;62.60;;;;;;4979253;28;20486;-64
2022/05/21 13:14:28;;;;;;;2.13;1.30;;;25.20;63.60;;;;;;4978222;28;20461;-64
2022/05/21 13:16:59;;;;;;;4.83;0.90;;;25.10;63.10;;;;;;4977443;28;20914;-65
2022/05/21 13:19:55;;;;;;;3.70;1.30;;;25.00;63.70;;;;;;4976568;28;20529;-64
2022/05/21 13:22:31;;;;;;;4.87;1.40;;;24.80;64.80;;;;;;4975924;28;20479;-64
2022/05/21 13:25:02;;;;;;;2.00;1.20;;;24.80;63.60;;;;;;4976045;28;20901;-64
2022/05/21 13:27:29;;;;;;;5.23;1.60;;;24.90;66.20;;;;;;4976426;28;20450;-64
2022/05/21 13:29:56;;;;;;;1.30;1.20;;;24.90;68.30;;;;;;4976288;28;20439;-64
2022/05/21 13:32:27;;;;;;;1.73;1.17;;;24.90;62.60;;;;;;4976081;28;20482;-64
2022/05/21 13:34:56;;;;;;;2.50;1.20;;;25.00;65.20;;;;;;4975964;28;20910;-64
2022/05/21 13:37:30;;;;;;;1.67;1.20;;;25.00;65.00;;;;;;4975627;28;20946;-64
2022/05/21 13:40:01;;;;;;;3.20;1.27;;;25.00;65.20;;;;;;4976210;28;20844;-65
2022/05/21 13:42:28;;;;;;;1.13;0.90;;;25.00;65.00;;;;;;4975957;28;20479;-64
2022/05/21 13:45:03;;;;;;;5.20;1.63;;;25.20;64.40;;;;;;4975680;28;20462;-64
2022/05/21 13:47:34;;;;;;;1.53;1.20;;;25.10;64.20;;;;;;4975717;28;20445;-64
2022/05/21 13:50:02;;;;;;;3.70;1.47;;;25.00;67.10;;;;;;4975778;28;20449;-64
2022/05/21 13:52:30;;;;;;;2.60;1.40;;;25.00;63.60;;;;;;4975623;28;20832;-64
2022/05/21 13:54:57;;;;;;;1.73;1.13;;;25.20;65.80;;;;;;4975162;28;20942;-64
2022/05/21 13:57:26;;;;;;;4.10;1.20;;;25.30;65.50;;;;;;4975811;28;20814;-64
2022/05/21 13:59:57;;;;;;;1.17;1.00;;;25.20;67.10;;;;;;4975876;28;20494;-64
2022/05/21 14:02:35;;;;;;;5.90;1.73;;;25.30;65.30;;;;;;4975661;28;20914;-64
2022/05/21 14:05:21;;;;;;;2.87;1.33;;;25.40;66.90;;;;;;4976883;28;20462;-64
2022/05/21 14:07:51;;;;;;;4.97;1.33;;;25.40;65.30;;;;;;4975722;28;20793;-64
2022/05/21 14:10:32;;;;;;;2.83;1.30;;;25.50;65.50;;;;;;4975515;28;20466;-65
2022/05/21 14:13:05;;;;;;;2.73;1.23;;;25.50;64.30;;;;;;4975585;28;20430;-65
2022/05/21 14:15:36;;;;;;;3.43;1.37;;;25.60;63.70;;;;;;4975488;28;20541;-65
2022/05/21 14:18:06;;;;;;;1.50;1.40;;;25.50;62.80;;;;;;4975393;28;20443;-65
2022/05/21 14:20:36;;;;;;;1.33;1.23;;;25.40;65.60;;;;;;4975399;28;20561;-65
2022/05/21 14:23:27;;;;;;;2.83;1.37;;;25.30;63.00;;;;;;4975354;28;20921;-65
2022/05/21 14:26:19;;;;;;;2.87;1.50;;;25.10;63.60;;;;;;4975212;28;20462;-65
2022/05/21 14:28:47;;;;;;;2.93;1.07;;;24.90;63.90;;;;;;4975208;28;20458;-65
2022/05/21 14:31:34;;;;;;;1.70;1.07;;;24.80;65.60;;;;;;4975187;28;20486;-65
2022/05/21 14:34:06;;;;;;;1.30;0.90;;;24.90;65.80;;;;;;4975320;28;20477;-65
2022/05/21 14:36:40;;;;;;;2.10;1.63;;;25.00;65.40;;;;;;4974951;28;20907;-65
2022/05/21 14:39:07;;;;;;;1.37;1.27;;;25.10;64.90;;;;;;4975159;28;20502;-65
2022/05/21 14:41:37;;;;;;;1.60;1.47;;;25.20;63.90;;;;;;4974901;28;20506;-65
2022/05/21 14:44:06;;;;;;;1.40;1.30;;;25.30;64.20;;;;;;4976006;28;20517;-65
2022/05/21 14:49:18;;;;;;;2.47;1.10;;;25.50;63.60;;;;;;4975147;28;20491;-65
2022/05/21 14:54:41;;;;;;;2.63;1.50;;;25.60;63.00;;;;;;4975020;28;20783;-65
2022/05/21 14:57:12;;;;;;;1.70;1.30;;;25.50;63.90;;;;;;4974981;28;20459;-65
2022/05/21 14:59:39;;;;;;;1.80;1.40;;;25.30;62.50;;;;;;4975142;28;20789;-65
2022/05/21 15:02:07;;;;;;;1.20;1.10;;;25.30;62.90;;;;;;4974769;28;20482;-65
2022/05/21 15:04:35;;;;;;;1.10;1.00;;;25.20;61.00;;;;;;4975004;28;20455;-65
2022/05/21 15:07:05;;;;;;;1.20;1.10;;;24.90;62.80;;;;;;4974665;28;20934;-64
2022/05/21 15:09:32;;;;;;;1.30;1.20;;;24.80;62.90;;;;;;4975034;28;20550;-64
2022/05/21 15:11:59;;;;;;;4.60;1.70;;;24.70;63.30;;;;;;4978983;28;20850;-65
2022/05/21 15:14:26;;;;;;;2.13;1.23;;;24.60;63.30;;;;;;4978403;28;20587;-65
2022/05/21 15:16:52;;;;;;;1.47;1.37;;;24.40;63.60;;;;;;4977510;28;20470;-65
2022/05/21 15:19:19;;;;;;;2.00;1.27;;;24.40;65.50;;;;;;4975081;28;20459;-64
2022/05/21 15:21:51;;;;;;;2.00;1.13;;;24.20;62.30;;;;;;4974831;28;20532;-64
2022/05/21 15:24:19;;;;;;;1.77;1.47;;;24.10;63.30;;;;;;4974959;28;20474;-65
2022/05/21 15:26:46;;;;;;;2.10;1.20;;;23.90;63.70;;;;;;4974987;28;20454;-65
2022/05/21 15:29:13;;;;;;;1.20;1.10;;;23.80;63.80;;;;;;4974960;28;20474;-65
2022/05/21 15:31:39;;;;;;;1.50;1.40;;;23.70;65.10;;;;;;4974812;28;20490;-64
2022/05/21 15:34:06;;;;;;;3.43;1.57;;;23.70;66.30;;;;;;4978672;28;20513;-65
2022/05/21 15:36:33;;;;;;;2.07;1.83;;;23.80;66.70;;;;;;4982778;28;20462;-67
2022/05/21 15:39:02;;;;;;;1.50;1.40;;;23.70;64.70;;;;;;4981881;28;20470;-65
2022/05/21 15:41:30;;;;;;;1.67;1.57;;;23.50;64.80;;;;;;4975564;28;21032;-65
2022/05/21 15:43:57;;;;;;;2.80;1.40;;;23.60;66.90;;;;;;4975836;28;20459;-65
2022/05/21 15:46:25;;;;;;;2.67;1.53;;;23.70;68.50;;;;;;4978496;28;20509;-65
2022/05/21 15:48:53;;;;;;;1.80;1.33;;;23.60;66.50;;;;;;4978060;28;20854;-64
2022/05/21 15:51:22;;;;;;;3.23;1.67;;;23.50;66.60;;;;;;4978178;28;20478;-63
2022/05/21 15:53:49;;;;;;;1.17;0.90;;;23.50;67.90;;;;;;4978099;28;20844;-64
2022/05/21 15:56:18;;;;;;;1.83;1.10;;;23.50;66.30;;;;;;4978013;28;20459;-65
2022/05/21 15:58:46;;;;;;;1.27;1.13;;;23.50;65.90;;;;;;4978025;28;20455;-64
2022/05/21 16:01:18;;;;;;;3.30;1.67;;;23.50;66.60;;;;;;4977706;28;20537;-64
2022/05/21 16:03:45;;;;;;;1.57;1.47;;;23.50;67.10;;;;;;4977814;28;20439;-65
2022/05/21 16:06:12;;;;;;;1.90;1.20;;;23.60;65.40;;;;;;4978054;28;20485;-65
2022/05/21 16:08:40;;;;;;;1.63;1.00;;;23.60;66.20;;;;;;4978381;28;20646;-65
2022/05/21 16:11:07;;;;;;;3.50;1.13;;;23.60;66.20;;;;;;4978083;28;20482;-66
2022/05/21 16:13:35;;;;;;;3.77;1.33;;;23.50;65.00;;;;;;4977763;28;20494;-64
2022/05/21 16:16:02;;;;;;;2.53;1.83;;;23.50;66.70;;;;;;4977851;28;20881;-64
2022/05/21 16:18:29;;;;;;;1.70;1.60;;;23.40;67.60;;;;;;4977419;28;20977;-64
2022/05/21 16:20:56;;;;;;;1.33;1.33;;;23.40;67.40;;;;;;4977602;28;20471;-64
2022/05/21 16:23:23;;;;;;;2.70;1.67;;;23.40;68.30;;;;;;4977617;28;20458;-64
2022/05/21 16:25:50;;;;;;;1.50;1.40;;;23.40;67.50;;;;;;4977367;28;21001;-65
2022/05/21 16:28:17;;;;;;;1.70;1.60;;;23.30;68.70;;;;;;4977453;28;20466;-65
2022/05/21 16:30:46;;;;;;;1.40;1.40;;;23.40;70.10;;;;;;4977327;28;20860;-64
2022/05/21 16:33:16;;;;;;;7.80;4.13;;;23.40;69.40;;;;;;4977513;28;20877;-65
2022/05/21 16:35:43;;;;;;;7.57;1.87;;;23.30;68.50;;;;;;4977333;28;20459;-64
2022/05/21 16:38:10;;;;;;;1.70;1.40;;;23.40;70.00;;;;;;4977302;28;20505;-64
2022/05/21 16:40:38;;;;;;;1.53;1.43;;;23.50;70.00;;;;;;4977260;28;20479;-64
2022/05/21 16:43:05;;;;;;;1.27;1.23;;;23.40;69.30;;;;;;4977833;28;20458;-64
2022/05/21 16:45:31;;;;;;;2.60;1.60;;;23.50;70.00;;;;;;4977123;28;20458;-65
2022/05/21 16:47:59;;;;;;;3.70;1.47;;;23.40;69.60;;;;;;4977125;28;20466;-65
2022/05/21 16:50:26;;;;;;;2.17;1.97;;;23.40;70.50;;;;;;4976847;28;20939;-64
2022/05/21 16:52:53;;;;;;;2.30;2.10;;;23.30;70.10;;;;;;4976882;28;20533;-65
2022/05/21 16:55:20;;;;;;;2.17;1.97;;;23.20;70.20;;;;;;4975919;28;20469;-64
2022/05/21 16:57:47;;;;;;;2.33;1.60;;;23.00;69.90;;;;;;4976741;28;20926;-65
2022/05/21 17:00:14;;;;;;;2.87;2.27;;;22.80;70.20;;;;;;4976956;28;20509;-65
2022/05/21 17:02:41;;;;;;;1.93;1.60;;;22.80;70.90;;;;;;4977018;28;20458;-65
2022/05/21 17:05:11;;;;;;;1.50;1.33;;;22.80;72.10;;;;;;4976852;28;20454;-64
2022/05/21 17:07:38;;;;;;;1.90;1.70;;;22.90;72.20;;;;;;4976418;28;20496;-65
2022/05/21 17:10:06;;;;;;;3.00;1.93;;;22.90;72.40;;;;;;4976874;28;20474;-64
2022/05/21 17:12:33;;;;;;;2.77;1.20;;;22.90;70.60;;;;;;4976767;28;21008;-65
2022/05/21 17:15:00;;;;;;;1.73;1.50;;;22.80;71.00;;;;;;4976405;28;20463;-64
2022/05/21 17:17:27;;;;;;;1.10;1.10;;;22.80;71.30;;;;;;4977155;28;20473;-64
2022/05/21 17:19:53;;;;;;;1.80;1.40;;;22.70;71.50;;;;;;4976656;28;20459;-64
2022/05/21 17:22:23;;;;;;;3.27;2.00;;;22.60;71.50;;;;;;4976674;28;20475;-64
2022/05/21 17:24:51;;;;;;;2.37;2.27;;;22.50;72.20;;;;;;4976389;28;20914;-64
2022/05/21 17:32:48;;;;;;;1.73;1.37;;;22.30;73.20;;;;;;4976398;28;20513;-65
2022/05/21 17:35:16;;;;;;;3.07;2.77;;;22.30;73.00;;;;;;4976166;28;20970;-65